sensor_id;sensor_type;location;lat;lon;timestamp;pressure;altitude;pressure_sealevel;temperature;humidity
69570;BME280;56781;42.292;23.146;2023-03-01T00:01:18;95930.41;;;6.06;97.75
69570;BME280;56781;42.292;23.146;2023-03-01T00:03:45;95961.53;;;6.20;99.04
69570;BME280;56781;42.292;23.146;2023-03-01T00:06:13;95933.50;;;5.92;100.00
69570;BME280;56781;42.292;23.146;2023-03-01T00:08:40;95931.34;;;5.84;100.00
69570;BME280;56781;42.292;23.146;2023-03-01T00:11:17;95941.47;;;5.87;100.00
69570;BME280;56781;42.292;23.146;2023-03-01T00:13:46;95915.59;;;5.72;99.90
69570;BME280;56781;42.292;23.146;2023-03-01T00:16:25;95913.78;;;5.73;100.00
69570;BME280;56781;42.292;23.146;2023-03-01T00:18:54;95909.19;;;5.63;99.60
69570;BME280;56781;42.292;23.146;2023-03-01T00:21:21;95916.94;;;5.65;98.84
69570;BME280;56781;42.292;23.146;2023-03-01T00:23:49;95914.50;;;5.63;99.55
69570;BME280;56781;42.292;23.146;2023-03-01T00:26:18;95922.97;;;5.55;99.13
69570;BME280;56781;42.292;23.146;2023-03-01T00:28:46;95953.34;;;5.74;99.09
69570;BME280;56781;42.292;23.146;2023-03-01T00:31:17;95925.72;;;5.70;97.27
69570;BME280;56781;42.292;23.146;2023-03-01T00:33:44;95922.00;;;5.71;98.18
69570;BME280;56781;42.292;23.146;2023-03-01T00:36:14;95919.84;;;5.68;98.65
69570;BME280;56781;42.292;23.146;2023-03-01T00:38:43;95922.81;;;5.77;97.89
69570;BME280;56781;42.292;23.146;2023-03-01T00:41:14;95919.03;;;5.63;99.53
69570;BME280;56781;42.292;23.146;2023-03-01T00:43:41;95924.06;;;5.64;98.88
69570;BME280;56781;42.292;23.146;2023-03-01T00:46:17;95929.91;;;5.61;99.54
69570;BME280;56781;42.292;23.146;2023-03-01T00:48:45;95929.38;;;5.64;99.47
69570;BME280;56781;42.292;23.146;2023-03-01T00:51:15;95940.59;;;5.71;99.54
69570;BME280;56781;42.292;23.146;2023-03-01T00:53:43;95944.81;;;5.72;99.60
69570;BME280;56781;42.292;23.146;2023-03-01T00:56:13;95935.31;;;5.76;97.78
69570;BME280;56781;42.292;23.146;2023-03-01T00:58:41;95936.94;;;5.88;98.27
69570;BME280;56781;42.292;23.146;2023-03-01T01:01:29;95944.38;;;5.86;98.21
69570;BME280;56781;42.292;23.146;2023-03-01T01:04:02;95929.41;;;5.69;98.07
69570;BME280;56781;42.292;23.146;2023-03-01T01:06:32;95942.19;;;5.77;98.78
69570;BME280;56781;42.292;23.146;2023-03-01T01:09:00;95946.56;;;5.94;97.76
69570;BME280;56781;42.292;23.146;2023-03-01T01:11:29;95911.69;;;5.85;97.88
69570;BME280;56781;42.292;23.146;2023-03-01T01:13:57;95920.47;;;5.91;98.39
69570;BME280;56781;42.292;23.146;2023-03-01T01:16:26;95957.41;;;5.87;97.59
69570;BME280;56781;42.292;23.146;2023-03-01T01:18:55;95929.94;;;5.66;98.12
69570;BME280;56781;42.292;23.146;2023-03-01T01:21:24;95929.38;;;5.64;98.16
69570;BME280;56781;42.292;23.146;2023-03-01T01:23:51;95930.50;;;5.73;97.63
69570;BME280;56781;42.292;23.146;2023-03-01T01:26:27;95936.75;;;6.05;94.40
69570;BME280;56781;42.292;23.146;2023-03-01T01:28:56;95913.97;;;6.24;93.56
69570;BME280;56781;42.292;23.146;2023-03-01T01:31:24;95915.53;;;6.15;93.96
69570;BME280;56781;42.292;23.146;2023-03-01T01:33:52;95911.81;;;6.16;92.78
69570;BME280;56781;42.292;23.146;2023-03-01T01:36:20;95906.75;;;6.09;93.52
69570;BME280;56781;42.292;23.146;2023-03-01T01:38:47;95893.44;;;6.04;94.22
69570;BME280;56781;42.292;23.146;2023-03-01T01:41:15;95933.34;;;6.09;94.28
69570;BME280;56781;42.292;23.146;2023-03-01T01:43:48;95903.94;;;5.73;96.08
69570;BME280;56781;42.292;23.146;2023-03-01T01:46:29;95897.47;;;5.49;99.23
69570;BME280;56781;42.292;23.146;2023-03-01T01:49:01;95919.81;;;5.63;100.00
69570;BME280;56781;42.292;23.146;2023-03-01T01:51:38;95885.53;;;5.51;100.00
69570;BME280;56781;42.292;23.146;2023-03-01T01:54:14;95912.94;;;5.72;100.00
69570;BME280;56781;42.292;23.146;2023-03-01T01:56:44;95878.78;;;5.33;100.00
69570;BME280;56781;42.292;23.146;2023-03-01T01:59:15;95891.16;;;5.18;100.00
69570;BME280;56781;42.292;23.146;2023-03-01T02:01:43;95884.00;;;5.13;100.00
69570;BME280;56781;42.292;23.146;2023-03-01T02:04:10;95892.91;;;4.97;100.00
69570;BME280;56781;42.292;23.146;2023-03-01T02:06:41;95867.28;;;4.75;100.00
69570;BME280;56781;42.292;23.146;2023-03-01T02:09:15;95872.00;;;4.68;100.00
69570;BME280;56781;42.292;23.146;2023-03-01T02:11:44;95872.78;;;4.69;100.00
69570;BME280;56781;42.292;23.146;2023-03-01T02:14:11;95877.38;;;4.78;100.00
69570;BME280;56781;42.292;23.146;2023-03-01T02:16:38;95857.63;;;4.64;100.00
69570;BME280;56781;42.292;23.146;2023-03-01T02:19:06;95886.31;;;4.67;100.00
69570;BME280;56781;42.292;23.146;2023-03-01T02:22:03;95865.00;;;4.57;100.00
69570;BME280;56781;42.292;23.146;2023-03-01T02:27:10;95856.75;;;4.53;100.00
69570;BME280;56781;42.292;23.146;2023-03-01T02:29:38;95817.53;;;4.23;100.00
69570;BME280;56781;42.292;23.146;2023-03-01T02:32:05;95871.94;;;4.63;100.00
69570;BME280;56781;42.292;23.146;2023-03-01T02:34:33;95845.00;;;4.44;100.00
69570;BME280;56781;42.292;23.146;2023-03-01T02:37:04;95865.81;;;4.57;100.00
69570;BME280;56781;42.292;23.146;2023-03-01T02:39:46;95880.00;;;4.73;100.00
69570;BME280;56781;42.292;23.146;2023-03-01T02:42:22;95849.34;;;4.55;100.00
69570;BME280;56781;42.292;23.146;2023-03-01T02:44:52;95848.03;;;4.58;100.00
69570;BME280;56781;42.292;23.146;2023-03-01T02:47:20;95858.19;;;4.66;100.00
69570;BME280;56781;42.292;23.146;2023-03-01T02:49:47;95865.28;;;4.60;100.00
69570;BME280;56781;42.292;23.146;2023-03-01T02:52:27;95868.50;;;4.62;100.00
69570;BME280;56781;42.292;23.146;2023-03-01T02:55:06;95883.91;;;4.65;100.00
69570;BME280;56781;42.292;23.146;2023-03-01T02:57:36;95845.69;;;4.61;100.00
69570;BME280;56781;42.292;23.146;2023-03-01T03:00:09;95884.28;;;4.79;100.00
69570;BME280;56781;42.292;23.146;2023-03-01T03:02:50;95866.41;;;4.64;100.00
69570;BME280;56781;42.292;23.146;2023-03-01T03:05:20;95868.22;;;4.59;100.00
69570;BME280;56781;42.292;23.146;2023-03-01T03:07:48;95863.84;;;4.48;100.00
69570;BME280;56781;42.292;23.146;2023-03-01T03:10:20;95865.75;;;4.52;100.00
69570;BME280;56781;42.292;23.146;2023-03-01T03:12:55;95871.91;;;4.58;100.00
69570;BME280;56781;42.292;23.146;2023-03-01T03:15:23;95880.50;;;4.70;100.00
69570;BME280;56781;42.292;23.146;2023-03-01T03:17:52;95894.28;;;4.72;100.00
69570;BME280;56781;42.292;23.146;2023-03-01T03:20:22;95877.00;;;4.64;100.00
69570;BME280;56781;42.292;23.146;2023-03-01T03:22:52;95883.34;;;4.63;100.00
69570;BME280;56781;42.292;23.146;2023-03-01T03:25:20;95919.25;;;4.76;100.00
69570;BME280;56781;42.292;23.146;2023-03-01T03:27:49;95874.81;;;4.56;100.00
69570;BME280;56781;42.292;23.146;2023-03-01T03:30:18;95887.66;;;4.70;100.00
69570;BME280;56781;42.292;23.146;2023-03-01T03:32:47;95890.16;;;4.86;100.00
69570;BME280;56781;42.292;23.146;2023-03-01T03:35:31;95884.50;;;4.73;100.00
69570;BME280;56781;42.292;23.146;2023-03-01T03:38:00;95876.69;;;4.61;100.00
69570;BME280;56781;42.292;23.146;2023-03-01T03:42:59;95878.09;;;4.69;100.00
69570;BME280;56781;42.292;23.146;2023-03-01T03:45:26;95891.38;;;4.74;100.00
69570;BME280;56781;42.292;23.146;2023-03-01T03:48:14;95899.59;;;4.72;100.00
69570;BME280;56781;42.292;23.146;2023-03-01T03:50:41;95888.19;;;4.72;100.00
69570;BME280;56781;42.292;23.146;2023-03-01T03:53:10;95885.03;;;4.75;100.00
69570;BME280;56781;42.292;23.146;2023-03-01T03:55:38;95895.63;;;4.70;100.00
69570;BME280;56781;42.292;23.146;2023-03-01T03:58:25;95915.34;;;4.84;100.00
69570;BME280;56781;42.292;23.146;2023-03-01T04:00:54;95894.78;;;4.69;100.00
69570;BME280;56781;42.292;23.146;2023-03-01T04:03:24;95902.88;;;4.84;100.00
69570;BME280;56781;42.292;23.146;2023-03-01T04:05:52;95898.56;;;4.73;100.00
69570;BME280;56781;42.292;23.146;2023-03-01T04:08:21;95894.00;;;4.69;100.00
69570;BME280;56781;42.292;23.146;2023-03-01T04:10:50;95896.41;;;4.70;100.00
69570;BME280;56781;42.292;23.146;2023-03-01T04:13:22;95923.13;;;4.96;100.00
69570;BME280;56781;42.292;23.146;2023-03-01T04:15:53;95884.78;;;4.76;100.00
69570;BME280;56781;42.292;23.146;2023-03-01T04:18:23;95883.75;;;4.82;100.00
69570;BME280;56781;42.292;23.146;2023-03-01T04:20:53;95893.09;;;4.90;100.00
69570;BME280;56781;42.292;23.146;2023-03-01T04:23:22;95910.81;;;5.17;100.00
69570;BME280;56781;42.292;23.146;2023-03-01T04:25:51;95890.81;;;5.04;99.39
69570;BME280;56781;42.292;23.146;2023-03-01T04:28:39;95882.38;;;5.12;98.52
69570;BME280;56781;42.292;23.146;2023-03-01T04:31:10;95891.88;;;5.03;98.86
69570;BME280;56781;42.292;23.146;2023-03-01T04:33:48;95887.56;;;4.92;100.00
69570;BME280;56781;42.292;23.146;2023-03-01T04:36:17;95894.16;;;4.89;100.00
69570;BME280;56781;42.292;23.146;2023-03-01T04:38:45;95890.28;;;5.07;99.12
69570;BME280;56781;42.292;23.146;2023-03-01T04:41:18;95907.56;;;5.09;98.94
69570;BME280;56781;42.292;23.146;2023-03-01T04:43:46;95923.75;;;5.08;99.31
69570;BME280;56781;42.292;23.146;2023-03-01T04:46:15;95895.97;;;4.83;100.00
69570;BME280;56781;42.292;23.146;2023-03-01T04:48:43;95895.47;;;4.86;100.00
69570;BME280;56781;42.292;23.146;2023-03-01T04:51:11;95893.19;;;5.00;99.58
69570;BME280;56781;42.292;23.146;2023-03-01T04:53:42;95883.50;;;4.84;98.96
69570;BME280;56781;42.292;23.146;2023-03-01T04:56:10;95890.50;;;4.95;98.72
69570;BME280;56781;42.292;23.146;2023-03-01T04:58:37;95898.66;;;4.88;97.94
69570;BME280;56781;42.292;23.146;2023-03-01T05:01:15;95890.84;;;4.72;100.00
69570;BME280;56781;42.292;23.146;2023-03-01T05:03:49;95913.19;;;4.81;100.00
69570;BME280;56781;42.292;23.146;2023-03-01T05:06:18;95881.00;;;4.67;100.00
69570;BME280;56781;42.292;23.146;2023-03-01T05:08:46;95886.78;;;4.64;100.00
69570;BME280;56781;42.292;23.146;2023-03-01T05:11:13;95906.41;;;4.63;100.00
69570;BME280;56781;42.292;23.146;2023-03-01T05:13:40;95879.75;;;4.48;100.00
69570;BME280;56781;42.292;23.146;2023-03-01T05:16:08;95916.00;;;4.69;100.00
69570;BME280;56781;42.292;23.146;2023-03-01T05:18:39;95891.72;;;4.50;100.00
69570;BME280;56781;42.292;23.146;2023-03-01T05:21:09;95884.31;;;4.52;100.00
69570;BME280;56781;42.292;23.146;2023-03-01T05:23:37;95897.91;;;4.61;100.00
69570;BME280;56781;42.292;23.146;2023-03-01T05:26:06;95899.44;;;4.52;100.00
69570;BME280;56781;42.292;23.146;2023-03-01T05:28:48;95907.66;;;4.55;99.81
69570;BME280;56781;42.292;23.146;2023-03-01T05:31:15;95889.19;;;4.65;99.40
69570;BME280;56781;42.292;23.146;2023-03-01T05:33:42;95912.81;;;4.67;98.72
69570;BME280;56781;42.292;23.146;2023-03-01T05:36:10;95901.72;;;4.70;98.33
69570;BME280;56781;42.292;23.146;2023-03-01T05:38:37;95919.72;;;4.68;98.17
69570;BME280;56781;42.292;23.146;2023-03-01T05:41:04;95936.81;;;4.82;97.40
69570;BME280;56781;42.292;23.146;2023-03-01T05:43:32;95926.19;;;4.82;97.56
69570;BME280;56781;42.292;23.146;2023-03-01T05:46:02;95939.78;;;4.86;97.76
69570;BME280;56781;42.292;23.146;2023-03-01T05:48:29;95931.50;;;4.82;97.30
69570;BME280;56781;42.292;23.146;2023-03-01T05:50:59;95950.72;;;4.95;96.46
69570;BME280;56781;42.292;23.146;2023-03-01T05:53:27;95947.75;;;4.91;96.10
69570;BME280;56781;42.292;23.146;2023-03-01T05:55:54;95938.47;;;4.94;97.19
69570;BME280;56781;42.292;23.146;2023-03-01T05:58:21;95974.22;;;5.18;96.94
69570;BME280;56781;42.292;23.146;2023-03-01T06:00:48;95940.06;;;4.89;95.59
69570;BME280;56781;42.292;23.146;2023-03-01T06:03:17;95948.06;;;4.95;96.29
69570;BME280;56781;42.292;23.146;2023-03-01T06:05:44;95957.13;;;5.04;95.92
69570;BME280;56781;42.292;23.146;2023-03-01T06:08:12;95961.69;;;5.08;95.24
69570;BME280;56781;42.292;23.146;2023-03-01T06:10:40;95941.50;;;5.02;95.58
69570;BME280;56781;42.292;23.146;2023-03-01T06:13:07;95959.88;;;5.14;94.14
69570;BME280;56781;42.292;23.146;2023-03-01T06:15:34;95948.47;;;5.14;94.90
69570;BME280;56781;42.292;23.146;2023-03-01T06:18:01;95980.25;;;5.41;94.88
69570;BME280;56781;42.292;23.146;2023-03-01T06:20:29;95963.69;;;5.28;94.81
69570;BME280;56781;42.292;23.146;2023-03-01T06:22:56;95983.97;;;5.45;95.15
69570;BME280;56781;42.292;23.146;2023-03-01T06:25:25;95951.00;;;5.36;92.80
69570;BME280;56781;42.292;23.146;2023-03-01T06:27:52;95989.97;;;5.67;92.98
69570;BME280;56781;42.292;23.146;2023-03-01T06:30:21;95987.63;;;5.76;93.47
69570;BME280;56781;42.292;23.146;2023-03-01T06:32:49;95964.44;;;5.61;91.62
69570;BME280;56781;42.292;23.146;2023-03-01T06:35:17;95969.22;;;5.64;92.90
69570;BME280;56781;42.292;23.146;2023-03-01T06:37:46;95981.53;;;5.75;92.44
69570;BME280;56781;42.292;23.146;2023-03-01T06:40:13;95964.97;;;5.63;92.30
69570;BME280;56781;42.292;23.146;2023-03-01T06:42:43;95977.44;;;6.00;90.73
69570;BME280;56781;42.292;23.146;2023-03-01T06:45:11;95973.34;;;5.87;91.83
69570;BME280;56781;42.292;23.146;2023-03-01T06:47:38;95970.03;;;5.70;91.09
69570;BME280;56781;42.292;23.146;2023-03-01T06:50:05;95991.16;;;5.87;90.92
69570;BME280;56781;42.292;23.146;2023-03-01T06:52:33;95974.66;;;5.85;90.07
69570;BME280;56781;42.292;23.146;2023-03-01T06:55:00;95981.53;;;5.75;90.12
69570;BME280;56781;42.292;23.146;2023-03-01T06:57:27;96006.91;;;5.98;90.49
69570;BME280;56781;42.292;23.146;2023-03-01T06:59:54;96002.38;;;5.99;91.50
69570;BME280;56781;42.292;23.146;2023-03-01T07:02:22;95975.28;;;6.02;90.23
69570;BME280;56781;42.292;23.146;2023-03-01T07:04:50;96002.50;;;6.25;89.24
69570;BME280;56781;42.292;23.146;2023-03-01T07:07:18;95976.28;;;5.91;89.37
69570;BME280;56781;42.292;23.146;2023-03-01T07:09:46;95999.81;;;6.14;89.65
69570;BME280;56781;42.292;23.146;2023-03-01T07:12:13;95977.66;;;5.93;90.67
69570;BME280;56781;42.292;23.146;2023-03-01T07:14:40;95964.66;;;6.02;89.96
69570;BME280;56781;42.292;23.146;2023-03-01T07:17:07;95982.25;;;6.18;89.11
69570;BME280;56781;42.292;23.146;2023-03-01T07:19:34;95964.47;;;6.19;88.35
69570;BME280;56781;42.292;23.146;2023-03-01T07:22:03;95986.28;;;6.26;89.04
69570;BME280;56781;42.292;23.146;2023-03-01T07:24:31;95962.63;;;6.19;88.18
69570;BME280;56781;42.292;23.146;2023-03-01T07:26:58;95958.38;;;6.29;87.48
69570;BME280;56781;42.292;23.146;2023-03-01T07:29:25;95978.09;;;6.38;87.85
69570;BME280;56781;42.292;23.146;2023-03-01T07:31:52;95962.63;;;6.25;88.39
69570;BME280;56781;42.292;23.146;2023-03-01T07:34:19;95973.50;;;6.18;88.28
69570;BME280;56781;42.292;23.146;2023-03-01T07:36:46;95956.00;;;6.27;88.14
69570;BME280;56781;42.292;23.146;2023-03-01T07:39:14;95953.06;;;6.29;88.42
69570;BME280;56781;42.292;23.146;2023-03-01T07:41:43;95989.56;;;6.59;87.25
69570;BME280;56781;42.292;23.146;2023-03-01T07:44:11;95943.53;;;6.48;87.02
69570;BME280;56781;42.292;23.146;2023-03-01T07:46:38;95975.50;;;6.69;87.64
69570;BME280;56781;42.292;23.146;2023-03-01T07:49:30;95982.16;;;6.71;86.49
69570;BME280;56781;42.292;23.146;2023-03-01T07:52:14;95994.13;;;6.74;86.74
69570;BME280;56781;42.292;23.146;2023-03-01T07:54:43;95958.19;;;6.56;86.30
69570;BME280;56781;42.292;23.146;2023-03-01T07:57:11;95958.97;;;6.46;88.32
69570;BME280;56781;42.292;23.146;2023-03-01T07:59:38;95960.59;;;6.57;86.61
69570;BME280;56781;42.292;23.146;2023-03-01T08:02:05;95947.81;;;6.59;86.17
69570;BME280;56781;42.292;23.146;2023-03-01T08:04:33;95948.88;;;6.63;87.27
69570;BME280;56781;42.292;23.146;2023-03-01T08:07:00;95955.28;;;6.78;84.59
69570;BME280;56781;42.292;23.146;2023-03-01T08:09:27;95980.84;;;6.94;86.16
69570;BME280;56781;42.292;23.146;2023-03-01T08:11:56;95951.03;;;6.72;86.54
69570;BME280;56781;42.292;23.146;2023-03-01T08:14:26;95945.19;;;6.80;87.26
69570;BME280;56781;42.292;23.146;2023-03-01T08:16:53;95937.72;;;6.61;85.71
69570;BME280;56781;42.292;23.146;2023-03-01T08:19:21;95940.94;;;6.79;86.87
69570;BME280;56781;42.292;23.146;2023-03-01T08:21:48;95953.16;;;6.70;87.04
69570;BME280;56781;42.292;23.146;2023-03-01T08:24:16;95951.03;;;6.97;85.83
69570;BME280;56781;42.292;23.146;2023-03-01T08:26:43;95946.78;;;7.01;85.17
69570;BME280;56781;42.292;23.146;2023-03-01T08:29:10;95944.41;;;7.10;84.26
69570;BME280;56781;42.292;23.146;2023-03-01T08:31:39;95948.66;;;7.01;84.35
69570;BME280;56781;42.292;23.146;2023-03-01T08:34:10;95928.16;;;6.91;85.47
69570;BME280;56781;42.292;23.146;2023-03-01T08:36:43;95939.34;;;6.93;83.71
69570;BME280;56781;42.292;23.146;2023-03-01T08:39:13;95957.41;;;7.22;85.62
69570;BME280;56781;42.292;23.146;2023-03-01T08:41:40;95948.88;;;7.40;84.14
69570;BME280;56781;42.292;23.146;2023-03-01T08:44:09;95956.09;;;7.24;84.38
69570;BME280;56781;42.292;23.146;2023-03-01T08:46:39;95943.06;;;7.02;84.86
69570;BME280;56781;42.292;23.146;2023-03-01T08:49:10;95929.75;;;7.07;84.29
69570;BME280;56781;42.292;23.146;2023-03-01T08:51:38;95943.56;;;7.30;83.95
69570;BME280;56781;42.292;23.146;2023-03-01T08:54:11;95936.09;;;7.47;82.48
69570;BME280;56781;42.292;23.146;2023-03-01T08:56:38;95937.66;;;7.69;81.84
69570;BME280;56781;42.292;23.146;2023-03-01T08:59:06;95960.63;;;7.49;84.13
69570;BME280;56781;42.292;23.146;2023-03-01T09:01:34;95963.69;;;7.92;84.41
69570;BME280;56781;42.292;23.146;2023-03-01T09:04:01;95947.38;;;8.09;82.06
69570;BME280;56781;42.292;23.146;2023-03-01T09:06:30;95943.88;;;8.14;80.33
69570;BME280;56781;42.292;23.146;2023-03-01T09:09:00;95939.25;;;8.40;80.18
69570;BME280;56781;42.292;23.146;2023-03-01T09:11:28;95944.91;;;8.28;78.48
69570;BME280;56781;42.292;23.146;2023-03-01T09:13:56;95943.31;;;8.77;78.36
69570;BME280;56781;42.292;23.146;2023-03-01T09:16:23;95941.81;;;9.00;77.30
69570;BME280;56781;42.292;23.146;2023-03-01T09:18:52;95969.72;;;9.47;75.67
69570;BME280;56781;42.292;23.146;2023-03-01T09:21:21;95932.44;;;9.37;77.46
69570;BME280;56781;42.292;23.146;2023-03-01T09:24:06;95916.50;;;8.92;77.45
69570;BME280;56781;42.292;23.146;2023-03-01T09:26:33;95904.97;;;8.97;76.28
69570;BME280;56781;42.292;23.146;2023-03-01T09:29:00;95920.59;;;9.14;76.76
69570;BME280;56781;42.292;23.146;2023-03-01T09:31:27;95906.97;;;9.15;75.28
69570;BME280;56781;42.292;23.146;2023-03-01T09:33:55;95907.94;;;9.77;74.04
69570;BME280;56781;42.292;23.146;2023-03-01T09:36:23;95905.84;;;10.60;71.76
69570;BME280;56781;42.292;23.146;2023-03-01T09:38:52;95902.88;;;10.00;74.60
69570;BME280;56781;42.292;23.146;2023-03-01T09:41:38;95898.00;;;9.59;73.98
69570;BME280;56781;42.292;23.146;2023-03-01T09:44:25;95898.88;;;9.73;74.34
69570;BME280;56781;42.292;23.146;2023-03-01T09:46:53;95925.44;;;9.41;77.19
69570;BME280;56781;42.292;23.146;2023-03-01T09:49:45;95915.91;;;9.29;76.88
69570;BME280;56781;42.292;23.146;2023-03-01T09:52:29;95891.28;;;9.03;76.94
69570;BME280;56781;42.292;23.146;2023-03-01T09:54:58;95890.97;;;8.81;78.56
69570;BME280;56781;42.292;23.146;2023-03-01T09:57:56;95910.31;;;8.97;79.26
69570;BME280;56781;42.292;23.146;2023-03-01T10:00:47;95891.78;;;8.32;79.36
69570;BME280;56781;42.292;23.146;2023-03-01T10:03:26;95896.56;;;8.45;81.17
69570;BME280;56781;42.292;23.146;2023-03-01T10:06:04;95901.13;;;8.74;80.69
69570;BME280;56781;42.292;23.146;2023-03-01T10:08:38;95921.28;;;8.61;80.16
69570;BME280;56781;42.292;23.146;2023-03-01T10:11:30;95905.50;;;8.10;81.39
69570;BME280;56781;42.292;23.146;2023-03-01T10:16:57;95930.81;;;8.67;81.49
69570;BME280;56781;42.292;23.146;2023-03-01T10:19:39;95897.28;;;8.56;80.44
69570;BME280;56781;42.292;23.146;2023-03-01T10:22:20;95889.22;;;8.11;80.50
69570;BME280;56781;42.292;23.146;2023-03-01T10:24:51;95895.84;;;8.24;80.38
69570;BME280;56781;42.292;23.146;2023-03-01T10:27:25;95879.00;;;8.34;80.19
69570;BME280;56781;42.292;23.146;2023-03-01T10:32:32;95881.78;;;8.58;80.35
69570;BME280;56781;42.292;23.146;2023-03-01T10:35:00;95893.34;;;8.43;80.76
69570;BME280;56781;42.292;23.146;2023-03-01T10:37:27;95873.44;;;8.25;80.64
69570;BME280;56781;42.292;23.146;2023-03-01T10:42:30;95907.47;;;8.38;81.27
69570;BME280;56781;42.292;23.146;2023-03-01T10:45:24;95881.09;;;8.37;80.91
69570;BME280;56781;42.292;23.146;2023-03-01T10:48:18;95895.84;;;8.24;81.47
69570;BME280;56781;42.292;23.146;2023-03-01T10:50:47;95869.47;;;8.62;80.62
69570;BME280;56781;42.292;23.146;2023-03-01T10:53:27;95860.44;;;8.58;80.74
69570;BME280;56781;42.292;23.146;2023-03-01T10:56:06;95861.59;;;8.81;79.90
69570;BME280;56781;42.292;23.146;2023-03-01T10:58:37;95876.47;;;9.21;76.64
69570;BME280;56781;42.292;23.146;2023-03-01T11:03:43;95901.47;;;9.01;79.08
69570;BME280;56781;42.292;23.146;2023-03-01T11:08:46;95862.88;;;9.18;76.56
69570;BME280;56781;42.292;23.146;2023-03-01T11:14:00;95887.25;;;9.64;76.99
69570;BME280;56781;42.292;23.146;2023-03-01T11:16:44;95854.19;;;9.55;75.62
69570;BME280;56781;42.292;23.146;2023-03-01T11:24:16;95848.34;;;9.96;76.55
69570;BME280;56781;42.292;23.146;2023-03-01T11:26:47;95836.47;;;10.64;73.43
69570;BME280;56781;42.292;23.146;2023-03-01T11:29:41;95834.13;;;10.57;70.89
69570;BME280;56781;42.292;23.146;2023-03-01T11:32:15;95823.16;;;10.59;71.06
69570;BME280;56781;42.292;23.146;2023-03-01T11:34:48;95827.09;;;10.29;72.68
69570;BME280;56781;42.292;23.146;2023-03-01T11:37:40;95822.91;;;10.17;72.84
69570;BME280;56781;42.292;23.146;2023-03-01T11:40:24;95832.34;;;10.34;73.82
69570;BME280;56781;42.292;23.146;2023-03-01T11:43:04;95826.47;;;10.13;74.07
69570;BME280;56781;42.292;23.146;2023-03-01T11:46:23;95831.28;;;9.92;74.96
69570;BME280;56781;42.292;23.146;2023-03-01T11:49:14;95834.41;;;9.99;74.42
69570;BME280;56781;42.292;23.146;2023-03-01T11:54:59;95824.75;;;9.12;75.99
69570;BME280;56781;42.292;23.146;2023-03-01T12:06:23;95810.63;;;9.30;76.09
69570;BME280;56781;42.292;23.146;2023-03-01T12:12:23;95825.56;;;8.78;78.02
69570;BME280;56781;42.292;23.146;2023-03-01T12:17:46;95837.75;;;8.90;78.86
69570;BME280;56781;42.292;23.146;2023-03-01T12:43:06;95844.31;;;8.73;80.99
69570;BME280;56781;42.292;23.146;2023-03-01T12:45:48;95828.59;;;8.72;80.30
69570;BME280;56781;42.292;23.146;2023-03-01T12:51:10;95815.03;;;8.63;79.77
69570;BME280;56781;42.292;23.146;2023-03-01T12:53:51;95812.91;;;8.60;80.31
69570;BME280;56781;42.292;23.146;2023-03-01T12:56:23;95800.09;;;8.62;79.62
69570;BME280;56781;42.292;23.146;2023-03-01T13:01:32;95827.50;;;8.73;80.68
69570;BME280;56781;42.292;23.146;2023-03-01T13:04:15;95847.56;;;8.65;81.20
69570;BME280;56781;42.292;23.146;2023-03-01T13:17:55;95788.66;;;8.17;81.78
69570;BME280;56781;42.292;23.146;2023-03-01T13:31:04;95815.47;;;8.41;81.33
69570;BME280;56781;42.292;23.146;2023-03-01T13:36:01;95798.19;;;8.33;82.29
69570;BME280;56781;42.292;23.146;2023-03-01T13:47:00;95777.47;;;8.54;82.20
69570;BME280;56781;42.292;23.146;2023-03-01T13:49:36;95787.59;;;8.57;81.93
69570;BME280;56781;42.292;23.146;2023-03-01T13:54:48;95809.22;;;8.56;82.81
69570;BME280;56781;42.292;23.146;2023-03-01T13:57:21;95793.53;;;8.49;82.36
69570;BME280;56781;42.292;23.146;2023-03-01T13:59:50;95765.16;;;8.24;83.16
69570;BME280;56781;42.292;23.146;2023-03-01T14:02:17;95765.19;;;8.19;82.92
69570;BME280;56781;42.292;23.146;2023-03-01T14:04:56;95777.69;;;7.84;84.21
69570;BME280;56781;42.292;23.146;2023-03-01T14:07:24;95773.44;;;7.83;85.06
69570;BME280;56781;42.292;23.146;2023-03-01T14:09:54;95804.47;;;8.03;85.11
69570;BME280;56781;42.292;23.146;2023-03-01T14:15:24;95771.56;;;7.84;85.35
69570;BME280;56781;42.292;23.146;2023-03-01T14:18:26;95794.84;;;8.12;84.35
69570;BME280;56781;42.292;23.146;2023-03-01T14:20:59;95776.56;;;7.95;84.17
69570;BME280;56781;42.292;23.146;2023-03-01T14:23:26;95763.19;;;8.00;84.54
69570;BME280;56781;42.292;23.146;2023-03-01T14:25:55;95799.97;;;8.04;85.56
69570;BME280;56781;42.292;23.146;2023-03-01T14:28:31;95773.63;;;7.92;84.80
69570;BME280;56781;42.292;23.146;2023-03-01T14:33:57;95779.06;;;7.76;84.79
69570;BME280;56781;42.292;23.146;2023-03-01T14:36:30;95803.81;;;7.87;84.70
69570;BME280;56781;42.292;23.146;2023-03-01T14:38:58;95769.06;;;7.53;86.05
69570;BME280;56781;42.292;23.146;2023-03-01T14:41:35;95771.25;;;7.41;86.17
69570;BME280;56781;42.292;23.146;2023-03-01T14:44:06;95781.25;;;7.64;87.27
69570;BME280;56781;42.292;23.146;2023-03-01T14:46:40;95775.72;;;7.50;86.04
69570;BME280;56781;42.292;23.146;2023-03-01T14:49:19;95802.31;;;7.66;85.55
69570;BME280;56781;42.292;23.146;2023-03-01T14:51:58;95798.16;;;7.39;87.02
69570;BME280;56781;42.292;23.146;2023-03-01T14:54:59;95793.63;;;7.40;86.85
69570;BME280;56781;42.292;23.146;2023-03-01T14:57:26;95784.63;;;7.25;87.45
69570;BME280;56781;42.292;23.146;2023-03-01T14:59:57;95773.19;;;7.25;87.10
69570;BME280;56781;42.292;23.146;2023-03-01T15:02:26;95764.13;;;7.26;86.96
69570;BME280;56781;42.292;23.146;2023-03-01T15:04:58;95766.03;;;7.10;86.75
69570;BME280;56781;42.292;23.146;2023-03-01T15:07:37;95788.19;;;7.00;87.61
69570;BME280;56781;42.292;23.146;2023-03-01T15:10:12;95781.25;;;6.89;88.45
69570;BME280;56781;42.292;23.146;2023-03-01T15:12:41;95803.81;;;7.17;89.27
69570;BME280;56781;42.292;23.146;2023-03-01T15:15:31;95799.53;;;7.26;88.49